Time;durP1;ratioP1;P1;durP2;ratioP2;P2;SDS_P1;SDS_P2;PMS_P1;PMS_P2;Temp;Humidity;BMP_temperature;BMP_pressure;BME280_temperature;BME280_humidity;BME280_pressure;Samples;Min_cycle;Max_cycle;Signal;HPM_P1;HPM_P2
2022/10/14 00:01:14;;;;;;;8.27;6.00;;;;;;;;;;5119123;28;20203;-81
2022/10/14 00:03:42;;;;;;;5.47;4.97;;;;;;;;;;5118908;28;20700;-81
2022/10/14 00:06:12;;;;;;;9.85;7.75;;;;;;;;;;5113695;28;20204;-82
2022/10/14 00:08:39;;;;;;;10.65;7.53;;;;;;;;;;5117245;28;20703;-80
2022/10/14 00:11:09;;;;;;;7.13;6.13;;;;;;;;;;5118440;28;20298;-83
2022/10/14 00:13:37;;;;;;;6.20;5.43;;;;;;;;;;5119158;28;20244;-83
2022/10/14 00:16:08;;;;;;;10.48;5.47;;;;;;;;;;5118236;28;20222;-82
2022/10/14 00:18:36;;;;;;;6.00;5.40;;;;;;;;;;5117908;28;20226;-82
2022/10/14 00:21:03;;;;;;;7.13;6.10;;;;;;;;;;5118301;28;20230;-85
2022/10/14 00:23:31;;;;;;;12.27;8.73;;;;;;;;;;5118132;28;20206;-84
2022/10/14 00:25:58;;;;;;;6.60;6.00;;;;;;;;;;5118100;28;20724;-85
2022/10/14 00:28:26;;;;;;;7.68;5.55;;;;;;;;;;5117673;28;20219;-84
2022/10/14 00:30:57;;;;;;;5.00;4.50;;;;;;;;;;5117557;28;20271;-85
2022/10/14 00:33:27;;;;;;;6.65;5.95;;;;;;;;;;5118054;28;20202;-85
2022/10/14 00:35:56;;;;;;;5.00;4.50;;;;;;;;;;5115229;28;20226;-84
2022/10/14 00:38:24;;;;;;;7.65;6.60;;;;;;;;;;5105801;28;20212;-83
2022/10/14 00:40:52;;;;;;;6.38;5.68;;;;;;;;;;5097555;28;20210;-85
2022/10/14 00:43:20;;;;;;;8.80;7.47;;;;;;;;;;5097553;28;20296;-85
2022/10/14 00:45:48;;;;;;;9.05;7.65;;;;;;;;;;5097752;28;20305;-84
2022/10/14 00:48:17;;;;;;;8.88;7.43;;;;;;;;;;5096954;28;20222;-83
2022/10/14 00:50:49;;;;;;;7.57;6.88;;;;;;;;;;5097351;28;20206;-84
2022/10/14 00:53:16;;;;;;;6.85;6.22;;;;;;;;;;5097327;28;20289;-84
2022/10/14 00:55:44;;;;;;;5.85;5.25;;;;;;;;;;5097071;28;20302;-84
2022/10/14 00:58:12;;;;;;;4.97;4.07;;;;;;;;;;5096957;28;20243;-84
2022/10/14 01:00:40;;;;;;;4.85;4.18;;;;;;;;;;5096870;28;20309;-83
2022/10/14 01:03:09;;;;;;;6.97;6.25;;;;;;;;;;5097455;28;20628;-84
2022/10/14 01:05:44;;;;;;;7.03;5.45;;;;;;;;;;5101324;28;20204;-85
2022/10/14 01:08:17;;;;;;;5.45;4.90;;;;;;;;;;5117571;28;20195;-86
2022/10/14 01:10:51;;;;;;;6.25;4.65;;;;;;;;;;5118866;28;20184;-85
2022/10/14 01:13:26;;;;;;;5.50;5.00;;;;;;;;;;5118576;28;20295;-86
2022/10/14 01:16:09;;;;;;;6.00;3.90;;;;;;;;;;5118919;28;20596;-85
2022/10/14 01:18:50;;;;;;;3.95;3.65;;;;;;;;;;5118479;28;20218;-84
2022/10/14 01:21:24;;;;;;;3.70;3.40;;;;;;;;;;5119860;28;20214;-84
2022/10/14 01:24:12;;;;;;;3.63;3.35;;;;;;;;;;5119346;28;20180;-85
2022/10/14 01:27:19;;;;;;;4.57;4.18;;;;;;;;;;5119157;28;20617;-84
2022/10/14 01:30:01;;;;;;;3.92;3.63;;;;;;;;;;5117891;28;20672;-84
2022/10/14 01:32:31;;;;;;;3.60;3.30;;;;;;;;;;5118204;28;20194;-85
2022/10/14 01:35:10;;;;;;;3.97;3.30;;;;;;;;;;5118182;28;20207;-85
2022/10/14 01:37:44;;;;;;;3.47;3.22;;;;;;;;;;5097826;28;20279;-85
2022/10/14 01:40:22;;;;;;;3.65;3.35;;;;;;;;;;5097353;28;20217;-85
2022/10/14 01:42:50;;;;;;;3.38;3.17;;;;;;;;;;5097164;28;20192;-85
2022/10/14 01:45:21;;;;;;;3.45;3.15;;;;;;;;;;5096797;28;20245;-84
2022/10/14 01:47:51;;;;;;;2.95;2.75;;;;;;;;;;5096411;28;20183;-84
2022/10/14 01:50:22;;;;;;;5.00;3.45;;;;;;;;;;5096289;28;20228;-85
2022/10/14 01:52:54;;;;;;;6.60;6.00;;;;;;;;;;5097426;28;20688;-84
2022/10/14 01:55:25;;;;;;;4.75;4.18;;;;;;;;;;5096761;28;20724;-85
2022/10/14 01:57:55;;;;;;;5.18;4.68;;;;;;;;;;5095378;28;20224;-84
2022/10/14 02:00:24;;;;;;;4.43;4.03;;;;;;;;;;5096630;28;20711;-85
2022/10/14 02:02:51;;;;;;;4.35;3.95;;;;;;;;;;5096950;28;20232;-85
2022/10/14 02:05:25;;;;;;;6.00;5.40;;;;;;;;;;5099263;28;20283;-85
2022/10/14 02:07:58;;;;;;;5.72;5.07;;;;;;;;;;5116892;28;20187;-84
2022/10/14 02:10:42;;;;;;;5.15;4.63;;;;;;;;;;5116759;28;20190;-84
2022/10/14 02:13:22;;;;;;;6.00;5.22;;;;;;;;;;5116469;28;20206;-84
2022/10/14 02:16:03;;;;;;;6.60;6.00;;;;;;;;;;5116315;28;20199;-85
2022/10/14 02:18:38;;;;;;;5.65;5.00;;;;;;;;;;5115464;28;20759;-84
2022/10/14 02:21:16;;;;;;;6.97;6.28;;;;;;;;;;5116165;28;20183;-84
2022/10/14 02:23:47;;;;;;;7.50;6.22;;;;;;;;;;5115873;28;20641;-85
2022/10/14 02:26:16;;;;;;;8.90;8.02;;;;;;;;;;5115996;28;20184;-85
2022/10/14 02:28:44;;;;;;;5.50;5.00;;;;;;;;;;5115308;28;20311;-85
2022/10/14 02:31:16;;;;;;;5.80;5.28;;;;;;;;;;5116151;28;20291;-85
2022/10/14 02:33:47;;;;;;;6.25;5.47;;;;;;;;;;5115588;28;20221;-84
2022/10/14 02:36:18;;;;;;;8.20;7.25;;;;;;;;;;5115534;28;20230;-85
2022/10/14 02:38:47;;;;;;;6.18;5.57;;;;;;;;;;5116129;28;20613;-85
2022/10/14 02:41:17;;;;;;;7.97;3.97;;;;;;;;;;5116130;28;20261;-84
2022/10/14 02:43:45;;;;;;;3.90;3.50;;;;;;;;;;5115283;28;20225;-85
2022/10/14 02:46:14;;;;;;;4.35;3.95;;;;;;;;;;5115775;28;20199;-85
2022/10/14 02:48:42;;;;;;;4.35;3.33;;;;;;;;;;5115819;28;20291;-84
2022/10/14 02:51:09;;;;;;;5.07;3.70;;;;;;;;;;5116471;28;20231;-84
2022/10/14 02:53:36;;;;;;;5.03;4.63;;;;;;;;;;5116210;28;20261;-84
2022/10/14 02:56:04;;;;;;;4.30;3.90;;;;;;;;;;5115806;28;20707;-84
2022/10/14 02:58:32;;;;;;;4.85;4.45;;;;;;;;;;5115690;28;20228;-84
2022/10/14 03:01:00;;;;;;;9.05;6.88;;;;;;;;;;5115449;28;20291;-84
2022/10/14 03:03:29;;;;;;;9.60;8.15;;;;;;;;;;5115980;28;20242;-84
2022/10/14 03:05:56;;;;;;;9.40;7.55;;;;;;;;;;5115218;28;20225;-84
2022/10/14 03:08:24;;;;;;;11.02;9.02;;;;;;;;;;5115368;28;20734;-83
2022/10/14 03:10:51;;;;;;;6.88;6.28;;;;;;;;;;5115537;28;20239;-83
2022/10/14 03:13:19;;;;;;;6.93;6.10;;;;;;;;;;5115355;28;20196;-83
2022/10/14 03:15:49;;;;;;;5.50;5.00;;;;;;;;;;5114932;28;20283;-84
2022/10/14 03:18:17;;;;;;;7.20;6.35;;;;;;;;;;5114635;28;20203;-84
2022/10/14 03:20:46;;;;;;;8.57;6.93;;;;;;;;;;5115523;28;20564;-84
2022/10/14 03:23:14;;;;;;;6.13;5.53;;;;;;;;;;5115250;28;20637;-85
2022/10/14 03:25:43;;;;;;;6.43;4.70;;;;;;;;;;5115096;28;20581;-84
2022/10/14 03:28:11;;;;;;;3.83;3.50;;;;;;;;;;5114403;28;20287;-85
2022/10/14 03:30:38;;;;;;;3.75;3.45;;;;;;;;;;5114723;28;20300;-85
2022/10/14 03:33:06;;;;;;;3.67;3.38;;;;;;;;;;5114803;28;20183;-85
2022/10/14 03:35:33;;;;;;;3.22;2.92;;;;;;;;;;5114590;28;20242;-85
2022/10/14 03:38:02;;;;;;;3.42;3.13;;;;;;;;;;5114095;28;20226;-85
2022/10/14 03:40:30;;;;;;;4.18;3.88;;;;;;;;;;5114921;28;20195;-84
2022/10/14 03:43:00;;;;;;;3.53;3.25;;;;;;;;;;5114661;28;20197;-84
2022/10/14 03:45:28;;;;;;;3.92;3.60;;;;;;;;;;5115429;28;20196;-83
2022/10/14 03:47:55;;;;;;;4.78;4.38;;;;;;;;;;5115533;28;20198;-84
2022/10/14 03:50:23;;;;;;;4.03;3.72;;;;;;;;;;5115656;28;20251;-84
2022/10/14 03:52:50;;;;;;;3.80;3.50;;;;;;;;;;5115387;28;20238;-84
2022/10/14 03:55:19;;;;;;;3.58;3.28;;;;;;;;;;5114806;28;20683;-84
2022/10/14 03:57:47;;;;;;;4.50;3.53;;;;;;;;;;5115357;28;20266;-83
2022/10/14 04:00:15;;;;;;;3.80;3.13;;;;;;;;;;5114321;28;20214;-84
2022/10/14 04:02:43;;;;;;;3.83;3.53;;;;;;;;;;5115717;28;20299;-83
2022/10/14 04:05:11;;;;;;;3.72;3.42;;;;;;;;;;5114071;28;20608;-85
2022/10/14 04:07:38;;;;;;;5.10;3.65;;;;;;;;;;5095545;28;20220;-83
2022/10/14 04:10:08;;;;;;;3.80;3.50;;;;;;;;;;5094977;28;20311;-84
2022/10/14 04:12:38;;;;;;;3.97;3.63;;;;;;;;;;5095472;28;20204;-84
2022/10/14 04:15:07;;;;;;;3.50;3.20;;;;;;;;;;5095170;28;20188;-83
2022/10/14 04:17:35;;;;;;;4.22;3.92;;;;;;;;;;5094244;28;20224;-84
2022/10/14 04:20:03;;;;;;;5.15;3.28;;;;;;;;;;5095766;28;20224;-84
2022/10/14 04:22:32;;;;;;;3.40;3.10;;;;;;;;;;5095344;28;20202;-83
2022/10/14 04:24:59;;;;;;;3.97;3.50;;;;;;;;;;5095102;28;20196;-84
2022/10/14 04:27:27;;;;;;;4.57;4.22;;;;;;;;;;5094518;28;20223;-84
2022/10/14 04:29:55;;;;;;;3.72;3.42;;;;;;;;;;5094930;28;20208;-86
2022/10/14 04:32:23;;;;;;;3.42;3.10;;;;;;;;;;5094315;28;20300;-87
2022/10/14 04:34:51;;;;;;;3.60;3.30;;;;;;;;;;5094403;28;20316;-85
2022/10/14 04:37:18;;;;;;;3.40;3.10;;;;;;;;;;5112828;28;20347;-84
2022/10/14 04:39:46;;;;;;;3.28;2.97;;;;;;;;;;5114784;28;20222;-83
2022/10/14 04:42:14;;;;;;;4.05;3.75;;;;;;;;;;5118371;28;20230;-85
2022/10/14 04:44:41;;;;;;;4.28;3.20;;;;;;;;;;5118390;28;20246;-85
2022/10/14 04:47:10;;;;;;;3.10;2.90;;;;;;;;;;5118463;28;20227;-83
2022/10/14 04:49:37;;;;;;;4.30;3.33;;;;;;;;;;5118926;28;20255;-84
2022/10/14 04:52:05;;;;;;;2.58;2.38;;;;;;;;;;5119162;28;20225;-84
2022/10/14 04:54:32;;;;;;;2.65;2.45;;;;;;;;;;5119260;28;20204;-85
2022/10/14 04:57:00;;;;;;;2.42;2.22;;;;;;;;;;5118811;28;20247;-86
2022/10/14 04:59:27;;;;;;;2.95;2.65;;;;;;;;;;5119000;28;20223;-86
2022/10/14 05:01:55;;;;;;;2.92;2.72;;;;;;;;;;5118878;28;20290;-86
2022/10/14 05:04:24;;;;;;;4.20;3.85;;;;;;;;;;5118432;28;20227;-86
2022/10/14 05:06:51;;;;;;;3.70;3.40;;;;;;;;;;5118313;28;20286;-84
2022/10/14 05:09:19;;;;;;;5.25;4.82;;;;;;;;;;5117567;28;20636;-85
2022/10/14 05:11:46;;;;;;;5.50;4.38;;;;;;;;;;5118565;28;20747;-83
2022/10/14 05:14:14;;;;;;;4.43;4.03;;;;;;;;;;5118948;28;20715;-84
2022/10/14 05:16:41;;;;;;;3.78;3.40;;;;;;;;;;5119086;28;20259;-84
2022/10/14 05:19:09;;;;;;;2.97;2.75;;;;;;;;;;5118434;28;20220;-85
2022/10/14 05:21:37;;;;;;;4.00;3.65;;;;;;;;;;5118052;28;20235;-84
2022/10/14 05:24:06;;;;;;;3.47;3.17;;;;;;;;;;5120443;27;20207;-86
2022/10/14 05:26:33;;;;;;;3.45;3.15;;;;;;;;;;5118630;28;20211;-84
2022/10/14 05:29:01;;;;;;;3.65;3.35;;;;;;;;;;5117861;28;20244;-84
2022/10/14 05:31:28;;;;;;;3.38;3.08;;;;;;;;;;5118184;28;20206;-84
2022/10/14 05:33:56;;;;;;;3.90;3.50;;;;;;;;;;5117785;27;20204;-85
2022/10/14 05:36:23;;;;;;;4.00;3.60;;;;;;;;;;5118510;27;20235;-83
2022/10/14 05:38:55;;;;;;;3.33;3.03;;;;;;;;;;5116416;28;20310;-84
2022/10/14 05:41:22;;;;;;;3.60;3.30;;;;;;;;;;5118187;28;20605;-84
2022/10/14 05:43:50;;;;;;;3.20;2.90;;;;;;;;;;5117950;28;20234;-83
2022/10/14 05:46:17;;;;;;;3.30;3.10;;;;;;;;;;5117242;28;20287;-85
2022/10/14 05:48:45;;;;;;;3.25;2.97;;;;;;;;;;5117198;28;20219;-85
2022/10/14 05:51:14;;;;;;;3.58;3.28;;;;;;;;;;5110077;28;20279;-83
2022/10/14 05:53:42;;;;;;;3.10;2.83;;;;;;;;;;5104623;28;20192;-84
2022/10/14 05:56:11;;;;;;;2.70;2.50;;;;;;;;;;5099353;28;20188;-83
2022/10/14 05:58:39;;;;;;;3.00;2.70;;;;;;;;;;5096392;28;20239;-84
2022/10/14 06:01:09;;;;;;;3.25;2.47;;;;;;;;;;5096998;28;20204;-84
2022/10/14 06:03:36;;;;;;;2.65;2.45;;;;;;;;;;5096790;28;20281;-82
2022/10/14 06:06:04;;;;;;;3.90;3.38;;;;;;;;;;5097206;28;20657;-82
2022/10/14 06:08:31;;;;;;;4.10;3.80;;;;;;;;;;5097848;28;20228;-82
2022/10/14 06:11:00;;;;;;;3.05;2.78;;;;;;;;;;5098024;28;20196;-82
2022/10/14 06:13:29;;;;;;;3.65;3.35;;;;;;;;;;5097817;28;20200;-83
2022/10/14 06:15:56;;;;;;;5.03;4.38;;;;;;;;;;5098184;28;20236;-83
2022/10/14 06:18:24;;;;;;;3.10;2.83;;;;;;;;;;5097958;28;20255;-82
2022/10/14 06:20:55;;;;;;;9.05;4.15;;;;;;;;;;5106251;28;20239;-82
2022/10/14 06:28:10;;;;;;;3.78;3.45;;;;;;;;;;5153161;27;20513;-82
2022/10/14 06:30:38;;;;;;;3.50;2.90;;;;;;;;;;5134980;28;20294;-81
2022/10/14 06:33:05;;;;;;;3.10;2.50;;;;;;;;;;5133794;28;20202;-82
2022/10/14 06:35:33;;;;;;;2.97;2.75;;;;;;;;;;5132007;28;20568;-82
2022/10/14 06:38:00;;;;;;;3.50;3.20;;;;;;;;;;5123246;27;20215;-82
2022/10/14 06:40:28;;;;;;;3.03;2.83;;;;;;;;;;5131898;28;20687;-81
2022/10/14 06:42:55;;;;;;;3.63;3.28;;;;;;;;;;5132208;28;20286;-83
2022/10/14 06:45:24;;;;;;;4.30;2.60;;;;;;;;;;5132735;28;20659;-82
2022/10/14 06:47:52;;;;;;;7.05;5.18;;;;;;;;;;5132378;28;20195;-81
2022/10/14 06:50:19;;;;;;;6.32;5.60;;;;;;;;;;5133231;27;20306;-84
2022/10/14 06:52:47;;;;;;;4.47;3.75;;;;;;;;;;5132176;28;20258;-83
2022/10/14 06:55:15;;;;;;;5.60;5.15;;;;;;;;;;5132898;28;20567;-81
2022/10/14 06:57:42;;;;;;;4.28;3.55;;;;;;;;;;5131572;28;20215;-83
2022/10/14 07:00:11;;;;;;;4.53;4.13;;;;;;;;;;5133965;27;20587;-83
2022/10/14 07:02:40;;;;;;;4.82;4.43;;;;;;;;;;5133397;28;20205;-81
2022/10/14 07:05:08;;;;;;;5.57;5.15;;;;;;;;;;5134207;28;20286;-82
2022/10/14 07:07:35;;;;;;;5.13;4.72;;;;;;;;;;5133426;28;20199;-82
2022/10/14 07:10:03;;;;;;;5.88;5.38;;;;;;;;;;5123230;22;20318;-82
2022/10/14 07:12:31;;;;;;;4.60;4.20;;;;;;;;;;5092002;28;20200;-81
2022/10/14 07:14:58;;;;;;;4.15;3.70;;;;;;;;;;5092209;28;20704;-83
2022/10/14 07:17:26;;;;;;;6.68;6.15;;;;;;;;;;5092216;28;20311;-83
2022/10/14 07:19:55;;;;;;;5.13;4.70;;;;;;;;;;5091048;28;20291;-82
2022/10/14 07:25:09;;;;;;;4.65;4.25;;;;;;;;;;5139098;27;20476;-83
2022/10/14 07:27:37;;;;;;;5.13;4.72;;;;;;;;;;5139103;28;20277;-82
2022/10/14 07:30:06;;;;;;;5.40;5.00;;;;;;;;;;5137932;28;20239;-82
2022/10/14 07:32:36;;;;;;;6.93;6.32;;;;;;;;;;5138579;27;20213;-81
2022/10/14 07:35:05;;;;;;;5.50;5.00;;;;;;;;;;5139405;27;20190;-81
2022/10/14 07:37:32;;;;;;;4.47;4.05;;;;;;;;;;5138409;27;20545;-82
2022/10/14 07:40:00;;;;;;;3.13;2.83;;;;;;;;;;5137700;27;20278;-81
2022/10/14 07:42:29;;;;;;;4.70;4.13;;;;;;;;;;5138264;27;20203;-82
2022/10/14 07:44:58;;;;;;;4.45;3.63;;;;;;;;;;5138411;27;20273;-82
2022/10/14 07:47:26;;;;;;;5.45;4.55;;;;;;;;;;5138611;27;20237;-82
2022/10/14 07:49:53;;;;;;;3.95;3.65;;;;;;;;;;5139067;27;20891;-82
2022/10/14 07:52:21;;;;;;;8.52;7.68;;;;;;;;;;5138152;27;20196;-82
2022/10/14 07:54:48;;;;;;;5.30;4.90;;;;;;;;;;5138147;27;20552;-81
2022/10/14 07:57:16;;;;;;;5.07;4.68;;;;;;;;;;5139152;27;20672;-81
2022/10/14 07:59:45;;;;;;;9.38;8.45;;;;;;;;;;5137801;27;20222;-82
2022/10/14 08:02:13;;;;;;;7.40;6.80;;;;;;;;;;5138186;27;20203;-81
2022/10/14 08:04:41;;;;;;;15.52;6.40;;;;;;;;;;5137633;27;20306;-81
2022/10/14 08:07:08;;;;;;;6.10;5.30;;;;;;;;;;5137630;27;20294;-81
2022/10/14 08:09:36;;;;;;;4.35;3.95;;;;;;;;;;5135800;27;20249;-82
2022/10/14 08:12:04;;;;;;;4.28;3.88;;;;;;;;;;5136080;27;20242;-82
2022/10/14 08:14:32;;;;;;;5.05;4.55;;;;;;;;;;5136392;27;20262;-82
2022/10/14 08:17:02;;;;;;;4.22;3.92;;;;;;;;;;5136056;27;20206;-82
2022/10/14 08:19:30;;;;;;;4.30;3.90;;;;;;;;;;5136565;27;20250;-82
2022/10/14 08:21:57;;;;;;;4.55;4.07;;;;;;;;;;5137200;27;20263;-83
2022/10/14 08:24:25;;;;;;;4.00;3.60;;;;;;;;;;5137211;27;20592;-82
2022/10/14 08:26:54;;;;;;;4.00;3.60;;;;;;;;;;5137787;27;20229;-81
2022/10/14 08:29:22;;;;;;;3.85;3.22;;;;;;;;;;5137669;27;20211;-83
2022/10/14 08:31:51;;;;;;;4.28;3.88;;;;;;;;;;5135903;27;20206;-82
2022/10/14 08:34:20;;;;;;;4.45;4.10;;;;;;;;;;5136916;27;20750;-83
2022/10/14 08:36:48;;;;;;;3.72;3.20;;;;;;;;;;5123585;28;20660;-82
2022/10/14 08:39:18;;;;;;;3.53;3.22;;;;;;;;;;5123995;28;20251;-82
2022/10/14 08:42:05;;;;;;;3.50;3.20;;;;;;;;;;5122572;28;20196;-82
2022/10/14 08:44:42;;;;;;;3.78;3.40;;;;;;;;;;5123535;28;20219;-82
2022/10/14 08:47:14;;;;;;;3.92;3.60;;;;;;;;;;5123921;27;20715;-81
2022/10/14 08:49:58;;;;;;;4.93;4.53;;;;;;;;;;5122900;28;20215;-82
2022/10/14 08:52:30;;;;;;;4.65;4.25;;;;;;;;;;5122625;28;20188;-83
2022/10/14 08:55:01;;;;;;;4.80;4.40;;;;;;;;;;5122521;28;20184;-83
2022/10/14 08:57:37;;;;;;;10.07;4.32;;;;;;;;;;5122775;28;20179;-83
2022/10/14 09:00:05;;;;;;;3.85;3.55;;;;;;;;;;5122535;28;20736;-83
2022/10/14 09:02:41;;;;;;;5.40;4.45;;;;;;;;;;5122305;28;20690;-83
2022/10/14 09:05:15;;;;;;;3.80;3.45;;;;;;;;;;5122355;28;20286;-82
2022/10/14 09:07:46;;;;;;;5.60;4.45;;;;;;;;;;5122284;28;20211;-82
2022/10/14 09:10:18;;;;;;;4.25;3.90;;;;;;;;;;5121648;28;20286;-81
2022/10/14 09:12:46;;;;;;;2.78;2.58;;;;;;;;;;5122276;28;20191;-82
2022/10/14 09:15:21;;;;;;;2.92;2.65;;;;;;;;;;5121751;28;20265;-82
2022/10/14 09:17:53;;;;;;;4.07;3.72;;;;;;;;;;5121589;28;20239;-84
2022/10/14 09:20:24;;;;;;;3.53;3.22;;;;;;;;;;5122069;28;20310;-82
2022/10/14 09:23:02;;;;;;;3.33;2.83;;;;;;;;;;5121217;28;20187;-81
2022/10/14 09:25:32;;;;;;;2.47;2.28;;;;;;;;;;5121701;28;20207;-82
2022/10/14 09:28:00;;;;;;;2.35;2.15;;;;;;;;;;5121475;28;20187;-82
2022/10/14 09:30:33;;;;;;;1.95;1.85;;;;;;;;;;5121442;28;20683;-83
2022/10/14 09:33:02;;;;;;;2.30;2.10;;;;;;;;;;5122528;28;20211;-82
2022/10/14 09:35:34;;;;;;;1.98;1.83;;;;;;;;;;5107681;28;20197;-82
2022/10/14 09:38:02;;;;;;;1.70;1.60;;;;;;;;;;5101249;28;20712;-82
2022/10/14 09:40:32;;;;;;;3.10;2.90;;;;;;;;;;5102091;28;20263;-84
2022/10/14 09:43:05;;;;;;;3.05;2.85;;;;;;;;;;5101218;28;20188;-83
2022/10/14 09:45:50;;;;;;;2.95;2.75;;;;;;;;;;5101376;28;20286;-83
2022/10/14 09:48:32;;;;;;;2.90;2.70;;;;;;;;;;5102903;28;20223;-84
2022/10/14 09:51:03;;;;;;;3.28;2.67;;;;;;;;;;5102080;28;20199;-82
2022/10/14 09:53:33;;;;;;;3.28;2.97;;;;;;;;;;5102525;28;20272;-82
2022/10/14 09:56:03;;;;;;;3.95;3.65;;;;;;;;;;5101177;28;20203;-84
2022/10/14 09:58:38;;;;;;;3.33;3.05;;;;;;;;;;5101692;28;20283;-84
2022/10/14 10:01:11;;;;;;;2.67;2.47;;;;;;;;;;5101754;28;20271;-83
2022/10/14 10:03:39;;;;;;;3.00;2.78;;;;;;;;;;5102319;28;20222;-84
2022/10/14 10:06:11;;;;;;;2.90;2.70;;;;;;;;;;5101856;28;20220;-84
2022/10/14 10:08:41;;;;;;;2.85;2.65;;;;;;;;;;5099857;28;20272;-83
2022/10/14 10:11:12;;;;;;;3.92;3.63;;;;;;;;;;5099723;28;20723;-82
2022/10/14 10:13:44;;;;;;;3.45;3.15;;;;;;;;;;5100154;28;20201;-83
2022/10/14 10:16:26;;;;;;;3.30;3.00;;;;;;;;;;5100513;28;20653;-82
2022/10/14 10:18:56;;;;;;;3.65;3.33;;;;;;;;;;5101026;28;20748;-84
2022/10/14 10:21:28;;;;;;;4.88;3.60;;;;;;;;;;5100596;28;20211;-84
2022/10/14 10:23:59;;;;;;;3.30;3.00;;;;;;;;;;5099959;28;20218;-83
2022/10/14 10:26:30;;;;;;;4.32;3.92;;;;;;;;;;5101178;28;20204;-83
2022/10/14 10:29:01;;;;;;;3.35;3.05;;;;;;;;;;5101588;28;20578;-83
2022/10/14 10:31:45;;;;;;;3.90;3.60;;;;;;;;;;5100391;28;20188;-83
2022/10/14 10:34:46;;;;;;;3.10;2.90;;;;;;;;;;5101336;28;20603;-84
2022/10/14 10:37:26;;;;;;;3.92;3.20;;;;;;;;;;5085360;28;20259;-83
2022/10/14 10:40:19;;;;;;;2.75;2.55;;;;;;;;;;5100909;28;20236;-84
2022/10/14 10:42:58;;;;;;;5.10;4.60;;;;;;;;;;5101119;28;20228;-82
2022/10/14 10:45:38;;;;;;;3.00;2.80;;;;;;;;;;5099794;28;20287;-83
2022/10/14 10:48:12;;;;;;;2.90;2.70;;;;;;;;;;5100442;28;20188;-84
2022/10/14 10:50:48;;;;;;;5.07;2.90;;;;;;;;;;5100933;28;20645;-84
2022/10/14 10:53:38;;;;;;;3.78;3.47;;;;;;;;;;5100233;28;20180;-84
2022/10/14 10:56:21;;;;;;;3.00;2.70;;;;;;;;;;5102880;28;20220;-83
2022/10/14 10:59:09;;;;;;;3.80;3.50;;;;;;;;;;5100819;28;20204;-84
2022/10/14 11:01:46;;;;;;;3.08;2.88;;;;;;;;;;5100776;28;20191;-82
2022/10/14 11:04:32;;;;;;;2.55;2.03;;;;;;;;;;5100848;28;20204;-82
2022/10/14 11:12:59;;;;;;;2.92;2.67;;;;;;;;;;5101572;28;20191;-84
2022/10/14 11:15:42;;;;;;;2.67;2.47;;;;;;;;;;5101591;28;20184;-83
2022/10/14 11:18:14;;;;;;;2.70;2.50;;;;;;;;;;5101839;28;20204;-83
2022/10/14 11:20:54;;;;;;;2.80;2.60;;;;;;;;;;5102140;28;20302;-84
2022/10/14 11:23:58;;;;;;;2.50;2.30;;;;;;;;;;5102442;28;20468;-85
2022/10/14 11:26:47;;;;;;;3.30;2.40;;;;;;;;;;5100721;28;20680;-83
2022/10/14 11:29:29;;;;;;;4.13;3.83;;;;;;;;;;5101939;28;20315;-84
2022/10/14 11:32:03;;;;;;;3.78;3.47;;;;;;;;;;5104648;28;20264;-83
2022/10/14 11:34:46;;;;;;;3.42;3.13;;;;;;;;;;5104000;28;20197;-83
2022/10/14 11:37:29;;;;;;;2.97;2.70;;;;;;;;;;5122876;28;20263;-83
2022/10/14 11:40:00;;;;;;;3.53;3.22;;;;;;;;;;5124413;28;20282;-83
2022/10/14 11:42:42;;;;;;;3.45;3.15;;;;;;;;;;5125989;28;20243;-83
2022/10/14 11:45:34;;;;;;;4.78;3.80;;;;;;;;;;5124196;28;20278;-82
2022/10/14 11:48:10;;;;;;;3.65;3.35;;;;;;;;;;5122700;28;20215;-83
2022/10/14 11:50:41;;;;;;;3.70;3.40;;;;;;;;;;5123087;28;20302;-85
2022/10/14 11:53:14;;;;;;;3.88;3.58;;;;;;;;;;5124718;28;20231;-84
2022/10/14 11:55:44;;;;;;;5.72;4.65;;;;;;;;;;5122528;28;20187;-82
2022/10/14 11:58:16;;;;;;;3.15;2.95;;;;;;;;;;5121707;28;20192;-83
2022/10/14 12:00:44;;;;;;;4.07;3.45;;;;;;;;;;5123276;28;20295;-84
2022/10/14 12:03:18;;;;;;;3.55;2.92;;;;;;;;;;5124230;28;20260;-83
2022/10/14 12:05:50;;;;;;;3.10;2.88;;;;;;;;;;5123557;28;20654;-84
2022/10/14 12:08:24;;;;;;;2.60;2.40;;;;;;;;;;5123879;28;20184;-84
2022/10/14 12:10:55;;;;;;;3.35;3.05;;;;;;;;;;5125263;28;20254;-83
2022/10/14 12:13:32;;;;;;;3.03;2.83;;;;;;;;;;5125753;28;20522;-84
2022/10/14 12:16:00;;;;;;;3.47;3.17;;;;;;;;;;5126222;28;20271;-84
2022/10/14 12:18:29;;;;;;;3.30;3.10;;;;;;;;;;5125960;28;20640;-84
2022/10/14 12:21:03;;;;;;;2.40;2.22;;;;;;;;;;5125352;28;20227;-83
2022/10/14 12:23:36;;;;;;;4.45;4.10;;;;;;;;;;5124843;28;20746;-83
2022/10/14 12:26:10;;;;;;;2.78;2.58;;;;;;;;;;5125270;28;20211;-84
2022/10/14 12:28:39;;;;;;;3.03;2.72;;;;;;;;;;5125370;28;20183;-84
2022/10/14 12:31:35;;;;;;;3.20;2.92;;;;;;;;;;5125640;28;20633;-84
2022/10/14 12:34:27;;;;;;;3.63;3.08;;;;;;;;;;5124932;28;20231;-83
2022/10/14 12:36:55;;;;;;;2.92;2.72;;;;;;;;;;5126014;27;20200;-83
2022/10/14 12:39:31;;;;;;;3.35;3.05;;;;;;;;;;5125419;28;20220;-84
2022/10/14 12:42:01;;;;;;;3.83;3.10;;;;;;;;;;5125210;28;20543;-82
2022/10/14 12:44:37;;;;;;;4.55;2.92;;;;;;;;;;5124535;28;20232;-84
2022/10/14 12:47:05;;;;;;;3.08;2.80;;;;;;;;;;5125344;28;20247;-83
2022/10/14 12:49:35;;;;;;;2.50;2.30;;;;;;;;;;5123046;28;20263;-83
2022/10/14 12:52:06;;;;;;;2.58;2.25;;;;;;;;;;5122951;28;20203;-84
2022/10/14 12:54:34;;;;;;;3.13;2.70;;;;;;;;;;5122629;28;20744;-84
2022/10/14 12:57:04;;;;;;;3.65;3.05;;;;;;;;;;5122278;28;20199;-83
2022/10/14 12:59:36;;;;;;;2.70;2.50;;;;;;;;;;5122513;28;20289;-83
2022/10/14 13:02:16;;;;;;;4.90;2.80;;;;;;;;;;5122692;28;20219;-83
2022/10/14 13:04:48;;;;;;;2.28;2.13;;;;;;;;;;5121591;28;20287;-83
2022/10/14 13:07:43;;;;;;;2.20;2.08;;;;;;;;;;5102679;28;20227;-85
2022/10/14 13:10:47;;;;;;;2.70;2.50;;;;;;;;;;5099404;28;20262;-84
2022/10/14 13:14:01;;;;;;;2.33;2.17;;;;;;;;;;5098939;28;20187;-84
2022/10/14 13:17:29;;;;;;;2.35;2.15;;;;;;;;;;5098199;28;20271;-83
2022/10/14 13:19:56;;;;;;;2.05;1.95;;;;;;;;;;5099804;28;20212;-83
2022/10/14 13:22:42;;;;;;;2.95;2.15;;;;;;;;;;5120549;28;20673;-84
2022/10/14 13:25:20;;;;;;;2.40;2.20;;;;;;;;;;5119787;28;20608;-84
2022/10/14 13:28:03;;;;;;;2.63;2.45;;;;;;;;;;5118437;28;20199;-84
2022/10/14 13:30:37;;;;;;;4.22;3.38;;;;;;;;;;5117880;28;20318;-82
2022/10/14 13:33:16;;;;;;;2.10;2.00;;;;;;;;;;5118196;28;20215;-83
2022/10/14 13:35:56;;;;;;;2.22;2.13;;;;;;;;;;5111675;28;20223;-83
2022/10/14 13:38:25;;;;;;;2.70;2.50;;;;;;;;;;5099160;28;20623;-83
2022/10/14 13:40:54;;;;;;;2.50;2.30;;;;;;;;;;5098126;28;20224;-84
2022/10/14 13:43:26;;;;;;;2.70;2.50;;;;;;;;;;5097655;28;20200;-84
2022/10/14 13:45:59;;;;;;;2.83;2.63;;;;;;;;;;5098066;28;20294;-84
2022/10/14 13:48:32;;;;;;;3.05;2.35;;;;;;;;;;5097296;28;20211;-83
2022/10/14 13:51:21;;;;;;;3.20;2.67;;;;;;;;;;5108534;28;20286;-83
2022/10/14 13:54:00;;;;;;;4.05;3.20;;;;;;;;;;5118266;28;20632;-83
2022/10/14 13:56:30;;;;;;;5.38;3.13;;;;;;;;;;5117679;27;20184;-83
2022/10/14 13:58:58;;;;;;;2.75;2.45;;;;;;;;;;5119492;28;20594;-85
2022/10/14 14:01:31;;;;;;;2.88;2.60;;;;;;;;;;5119093;27;20263;-84
2022/10/14 14:04:04;;;;;;;2.67;2.47;;;;;;;;;;5119103;28;20275;-81
2022/10/14 14:06:32;;;;;;;2.90;2.70;;;;;;;;;;5110639;28;20200;-81
2022/10/14 14:09:02;;;;;;;4.03;3.53;;;;;;;;;;5097536;28;20216;-84
2022/10/14 14:11:33;;;;;;;3.75;3.20;;;;;;;;;;5097753;28;20279;-85
2022/10/14 14:14:07;;;;;;;2.05;1.95;;;;;;;;;;5098507;28;20226;-85
2022/10/14 14:16:38;;;;;;;3.72;2.83;;;;;;;;;;5098170;28;20272;-85
2022/10/14 14:19:19;;;;;;;3.60;3.30;;;;;;;;;;5098954;28;20228;-85
2022/10/14 14:21:46;;;;;;;2.50;2.20;;;;;;;;;;5100221;28;20212;-85
2022/10/14 14:24:24;;;;;;;3.88;3.47;;;;;;;;;;5097284;28;20318;-85
2022/10/14 14:26:55;;;;;;;3.15;2.95;;;;;;;;;;5095822;28;20204;-84
2022/10/14 14:29:34;;;;;;;3.63;3.30;;;;;;;;;;5097423;28;20223;-84
2022/10/14 14:32:06;;;;;;;2.88;2.67;;;;;;;;;;5097855;28;20275;-85
2022/10/14 14:34:36;;;;;;;4.00;3.03;;;;;;;;;;5097718;28;20185;-84
2022/10/14 14:37:03;;;;;;;2.95;2.75;;;;;;;;;;5097296;28;20207;-85
2022/10/14 14:39:31;;;;;;;3.60;3.33;;;;;;;;;;5096303;28;20299;-84
2022/10/14 14:42:00;;;;;;;3.88;3.58;;;;;;;;;;5096848;28;20255;-84
2022/10/14 14:44:31;;;;;;;4.45;3.13;;;;;;;;;;5098564;28;20207;-83
2022/10/14 14:47:01;;;;;;;3.25;2.92;;;;;;;;;;5097728;28;20272;-85
2022/10/14 14:49:32;;;;;;;4.95;3.35;;;;;;;;;;5099446;28;20289;-84
2022/10/14 14:52:01;;;;;;;3.70;3.40;;;;;;;;;;5099084;28;20227;-84
2022/10/14 14:54:29;;;;;;;5.63;5.10;;;;;;;;;;5098447;28;20227;-84
2022/10/14 14:57:02;;;;;;;3.25;2.95;;;;;;;;;;5095907;28;20224;-85
2022/10/14 14:59:32;;;;;;;2.55;2.45;;;;;;;;;;5096247;28;20227;-84
2022/10/14 15:02:01;;;;;;;3.20;2.90;;;;;;;;;;5096900;28;20652;-85
2022/10/14 15:04:30;;;;;;;3.25;2.72;;;;;;;;;;5097284;28;20264;-84
2022/10/14 15:07:05;;;;;;;2.50;2.30;;;;;;;;;;5113205;28;20286;-83
2022/10/14 15:09:38;;;;;;;3.47;3.03;;;;;;;;;;5117407;28;20242;-84
2022/10/14 15:12:11;;;;;;;2.58;2.38;;;;;;;;;;5118570;28;20279;-84
2022/10/14 15:14:46;;;;;;;2.78;2.58;;;;;;;;;;5119463;28;20223;-85
2022/10/14 15:17:30;;;;;;;4.97;3.28;;;;;;;;;;5116712;28;20203;-85
2022/10/14 15:20:00;;;;;;;3.60;2.80;;;;;;;;;;5115786;28;20313;-84
2022/10/14 15:22:36;;;;;;;2.60;2.40;;;;;;;;;;5098100;28;20201;-85
2022/10/14 15:25:10;;;;;;;2.47;2.28;;;;;;;;;;5097761;28;20240;-84